sensor_id;sensor_type;location;lat;lon;timestamp;P1;durP1;ratioP1;P2;durP2;ratioP2
68523;SDS011;55524;51.380;13.372;2022-07-04T00:00:45;2.65;;;2.22;;
68523;SDS011;55524;51.380;13.372;2022-07-04T00:03:11;2.17;;;1.88;;
68523;SDS011;55524;51.380;13.372;2022-07-04T00:05:37;1.95;;;1.70;;
68523;SDS011;55524;51.380;13.372;2022-07-04T00:08:04;3.53;;;2.00;;
68523;SDS011;55524;51.380;13.372;2022-07-04T00:10:31;1.90;;;1.80;;
68523;SDS011;55524;51.380;13.372;2022-07-04T00:12:57;2.40;;;1.88;;
68523;SDS011;55524;51.380;13.372;2022-07-04T00:15:23;2.92;;;2.10;;
68523;SDS011;55524;51.380;13.372;2022-07-04T00:17:50;3.10;;;1.85;;
68523;SDS011;55524;51.380;13.372;2022-07-04T00:20:16;4.07;;;1.88;;
68523;SDS011;55524;51.380;13.372;2022-07-04T00:22:43;3.10;;;1.90;;
68523;SDS011;55524;51.380;13.372;2022-07-04T00:25:10;2.40;;;1.55;;
68523;SDS011;55524;51.380;13.372;2022-07-04T00:27:36;1.88;;;1.77;;
68523;SDS011;55524;51.380;13.372;2022-07-04T00:30:03;3.28;;;1.75;;
68523;SDS011;55524;51.380;13.372;2022-07-04T00:32:30;2.40;;;1.75;;
68523;SDS011;55524;51.380;13.372;2022-07-04T00:34:56;1.83;;;1.73;;
68523;SDS011;55524;51.380;13.372;2022-07-04T00:37:22;1.70;;;1.60;;
68523;SDS011;55524;51.380;13.372;2022-07-04T00:39:49;1.75;;;1.65;;
68523;SDS011;55524;51.380;13.372;2022-07-04T00:42:15;1.70;;;1.60;;
68523;SDS011;55524;51.380;13.372;2022-07-04T00:44:41;1.60;;;1.50;;
68523;SDS011;55524;51.380;13.372;2022-07-04T00:47:08;1.63;;;1.52;;
68523;SDS011;55524;51.380;13.372;2022-07-04T00:49:34;1.70;;;1.60;;
68523;SDS011;55524;51.380;13.372;2022-07-04T00:52:01;1.83;;;1.60;;
68523;SDS011;55524;51.380;13.372;2022-07-04T00:54:28;1.92;;;1.48;;
68523;SDS011;55524;51.380;13.372;2022-07-04T00:56:56;1.58;;;1.48;;
68523;SDS011;55524;51.380;13.372;2022-07-04T00:59:23;1.85;;;1.60;;
68523;SDS011;55524;51.380;13.372;2022-07-04T01:01:50;2.38;;;1.70;;
68523;SDS011;55524;51.380;13.372;2022-07-04T01:04:16;1.58;;;1.48;;
68523;SDS011;55524;51.380;13.372;2022-07-04T01:06:43;3.17;;;1.52;;
68523;SDS011;55524;51.380;13.372;2022-07-04T01:09:10;1.48;;;1.38;;
68523;SDS011;55524;51.380;13.372;2022-07-04T01:11:37;1.58;;;1.48;;
68523;SDS011;55524;51.380;13.372;2022-07-04T01:14:03;1.85;;;1.40;;
68523;SDS011;55524;51.380;13.372;2022-07-04T01:16:33;1.60;;;1.50;;
68523;SDS011;55524;51.380;13.372;2022-07-04T01:18:59;2.70;;;1.50;;
68523;SDS011;55524;51.380;13.372;2022-07-04T01:21:26;1.27;;;1.25;;
68523;SDS011;55524;51.380;13.372;2022-07-04T01:23:52;5.85;;;1.67;;
68523;SDS011;55524;51.380;13.372;2022-07-04T01:26:19;3.95;;;1.67;;
68523;SDS011;55524;51.380;13.372;2022-07-04T01:28:46;1.60;;;1.50;;
68523;SDS011;55524;51.380;13.372;2022-07-04T01:31:12;3.03;;;1.40;;
68523;SDS011;55524;51.380;13.372;2022-07-04T01:33:38;4.35;;;1.50;;
68523;SDS011;55524;51.380;13.372;2022-07-04T01:36:05;3.35;;;1.48;;
68523;SDS011;55524;51.380;13.372;2022-07-04T01:38:31;4.97;;;1.50;;
68523;SDS011;55524;51.380;13.372;2022-07-04T01:40:57;2.70;;;1.65;;
68523;SDS011;55524;51.380;13.372;2022-07-04T01:43:23;2.55;;;1.60;;
68523;SDS011;55524;51.380;13.372;2022-07-04T01:45:49;1.88;;;1.60;;
68523;SDS011;55524;51.380;13.372;2022-07-04T01:48:16;1.58;;;1.50;;
68523;SDS011;55524;51.380;13.372;2022-07-04T01:50:42;1.98;;;1.50;;
68523;SDS011;55524;51.380;13.372;2022-07-04T01:53:08;3.10;;;1.77;;
68523;SDS011;55524;51.380;13.372;2022-07-04T01:55:34;2.15;;;1.95;;
68523;SDS011;55524;51.380;13.372;2022-07-04T01:58:01;3.25;;;1.70;;
68523;SDS011;55524;51.380;13.372;2022-07-04T02:00:28;5.10;;;1.85;;
68523;SDS011;55524;51.380;13.372;2022-07-04T02:03:13;2.33;;;1.83;;
68523;SDS011;55524;51.380;13.372;2022-07-04T02:05:39;1.90;;;1.80;;
68523;SDS011;55524;51.380;13.372;2022-07-04T02:08:07;2.88;;;2.00;;
68523;SDS011;55524;51.380;13.372;2022-07-04T02:10:35;3.97;;;1.88;;
68523;SDS011;55524;51.380;13.372;2022-07-04T02:13:01;2.75;;;1.90;;
68523;SDS011;55524;51.380;13.372;2022-07-04T02:15:32;3.53;;;1.70;;
68523;SDS011;55524;51.380;13.372;2022-07-04T02:18:06;1.90;;;1.80;;
68523;SDS011;55524;51.380;13.372;2022-07-04T02:20:35;1.50;;;1.40;;
68523;SDS011;55524;51.380;13.372;2022-07-04T02:23:02;1.70;;;1.55;;
68523;SDS011;55524;51.380;13.372;2022-07-04T02:25:29;2.08;;;1.63;;
68523;SDS011;55524;51.380;13.372;2022-07-04T02:27:56;1.35;;;1.30;;
68523;SDS011;55524;51.380;13.372;2022-07-04T02:30:22;4.28;;;1.67;;
68523;SDS011;55524;51.380;13.372;2022-07-04T02:32:49;3.60;;;1.42;;
68523;SDS011;55524;51.380;13.372;2022-07-04T02:35:15;4.45;;;1.48;;
68523;SDS011;55524;51.380;13.372;2022-07-04T02:37:42;5.97;;;1.65;;
68523;SDS011;55524;51.380;13.372;2022-07-04T02:40:08;3.75;;;1.50;;
68523;SDS011;55524;51.380;13.372;2022-07-04T02:42:35;8.50;;;1.52;;
68523;SDS011;55524;51.380;13.372;2022-07-04T02:45:02;3.75;;;1.48;;
68523;SDS011;55524;51.380;13.372;2022-07-04T02:47:29;4.20;;;1.70;;
68523;SDS011;55524;51.380;13.372;2022-07-04T02:49:56;1.45;;;1.35;;
68523;SDS011;55524;51.380;13.372;2022-07-04T02:52:22;1.95;;;1.58;;
68523;SDS011;55524;51.380;13.372;2022-07-04T02:54:49;2.63;;;1.50;;
68523;SDS011;55524;51.380;13.372;2022-07-04T02:57:17;4.88;;;1.80;;
68523;SDS011;55524;51.380;13.372;2022-07-04T02:59:44;1.60;;;1.50;;
68523;SDS011;55524;51.380;13.372;2022-07-04T03:02:10;4.70;;;1.55;;
68523;SDS011;55524;51.380;13.372;2022-07-04T03:04:36;3.08;;;1.50;;
68523;SDS011;55524;51.380;13.372;2022-07-04T03:07:05;2.67;;;1.60;;
68523;SDS011;55524;51.380;13.372;2022-07-04T03:09:32;1.83;;;1.60;;
68523;SDS011;55524;51.380;13.372;2022-07-04T03:11:59;2.38;;;1.48;;
68523;SDS011;55524;51.380;13.372;2022-07-04T03:14:25;4.25;;;1.60;;
68523;SDS011;55524;51.380;13.372;2022-07-04T03:16:51;2.03;;;1.58;;
68523;SDS011;55524;51.380;13.372;2022-07-04T03:19:17;3.45;;;1.50;;
68523;SDS011;55524;51.380;13.372;2022-07-04T03:21:44;2.05;;;1.58;;
68523;SDS011;55524;51.380;13.372;2022-07-04T03:24:10;4.13;;;1.50;;
68523;SDS011;55524;51.380;13.372;2022-07-04T03:26:36;2.92;;;2.08;;
68523;SDS011;55524;51.380;13.372;2022-07-04T03:29:02;1.75;;;1.65;;
68523;SDS011;55524;51.380;13.372;2022-07-04T03:31:29;6.15;;;1.70;;
68523;SDS011;55524;51.380;13.372;2022-07-04T03:33:55;2.83;;;1.70;;
68523;SDS011;55524;51.380;13.372;2022-07-04T03:36:21;2.15;;;1.88;;
68523;SDS011;55524;51.380;13.372;2022-07-04T03:38:48;2.55;;;1.83;;
68523;SDS011;55524;51.380;13.372;2022-07-04T03:41:14;3.97;;;1.83;;
68523;SDS011;55524;51.380;13.372;2022-07-04T03:43:41;2.20;;;1.67;;
68523;SDS011;55524;51.380;13.372;2022-07-04T03:46:07;6.45;;;2.10;;
68523;SDS011;55524;51.380;13.372;2022-07-04T03:48:33;2.83;;;1.83;;
68523;SDS011;55524;51.380;13.372;2022-07-04T03:51:01;3.50;;;1.90;;
68523;SDS011;55524;51.380;13.372;2022-07-04T03:53:27;3.85;;;2.20;;
68523;SDS011;55524;51.380;13.372;2022-07-04T03:55:53;4.45;;;2.08;;
68523;SDS011;55524;51.380;13.372;2022-07-04T03:58:19;1.80;;;1.70;;
68523;SDS011;55524;51.380;13.372;2022-07-04T04:00:46;3.92;;;2.35;;
68523;SDS011;55524;51.380;13.372;2022-07-04T04:03:12;3.92;;;2.15;;
68523;SDS011;55524;51.380;13.372;2022-07-04T04:06:01;3.70;;;2.38;;
68523;SDS011;55524;51.380;13.372;2022-07-04T04:08:27;4.18;;;2.10;;
68523;SDS011;55524;51.380;13.372;2022-07-04T04:10:54;3.20;;;2.38;;
68523;SDS011;55524;51.380;13.372;2022-07-04T04:13:20;5.60;;;2.10;;
68523;SDS011;55524;51.380;13.372;2022-07-04T04:15:46;3.88;;;2.50;;
68523;SDS011;55524;51.380;13.372;2022-07-04T04:18:12;3.47;;;2.20;;
68523;SDS011;55524;51.380;13.372;2022-07-04T04:20:39;3.15;;;2.17;;
68523;SDS011;55524;51.380;13.372;2022-07-04T04:23:05;4.22;;;2.38;;
68523;SDS011;55524;51.380;13.372;2022-07-04T04:25:31;4.63;;;2.60;;
68523;SDS011;55524;51.380;13.372;2022-07-04T04:27:58;4.63;;;2.50;;
68523;SDS011;55524;51.380;13.372;2022-07-04T04:30:30;3.83;;;2.20;;
68523;SDS011;55524;51.380;13.372;2022-07-04T04:32:56;3.13;;;2.40;;
68523;SDS011;55524;51.380;13.372;2022-07-04T04:35:22;7.32;;;2.60;;
68523;SDS011;55524;51.380;13.372;2022-07-04T04:37:48;3.17;;;2.20;;
68523;SDS011;55524;51.380;13.372;2022-07-04T04:40:15;5.88;;;2.45;;
68523;SDS011;55524;51.380;13.372;2022-07-04T04:42:42;2.97;;;2.28;;
68523;SDS011;55524;51.380;13.372;2022-07-04T04:45:08;12.32;;;2.80;;
68523;SDS011;55524;51.380;13.372;2022-07-04T04:47:35;8.98;;;2.53;;
68523;SDS011;55524;51.380;13.372;2022-07-04T04:50:01;7.22;;;2.70;;
68523;SDS011;55524;51.380;13.372;2022-07-04T04:52:28;5.00;;;2.63;;
68523;SDS011;55524;51.380;13.372;2022-07-04T04:54:54;8.57;;;2.90;;
68523;SDS011;55524;51.380;13.372;2022-07-04T04:57:20;5.97;;;2.65;;
68523;SDS011;55524;51.380;13.372;2022-07-04T04:59:47;3.78;;;2.17;;
68523;SDS011;55524;51.380;13.372;2022-07-04T05:02:13;5.78;;;2.30;;
68523;SDS011;55524;51.380;13.372;2022-07-04T05:04:39;4.60;;;2.40;;
68523;SDS011;55524;51.380;13.372;2022-07-04T05:07:05;3.63;;;2.50;;
68523;SDS011;55524;51.380;13.372;2022-07-04T05:09:32;16.88;;;3.70;;
68523;SDS011;55524;51.380;13.372;2022-07-04T05:11:58;22.42;;;4.25;;
68523;SDS011;55524;51.380;13.372;2022-07-04T05:14:25;4.65;;;2.70;;
68523;SDS011;55524;51.380;13.372;2022-07-04T05:16:51;4.35;;;2.88;;
68523;SDS011;55524;51.380;13.372;2022-07-04T05:19:17;9.52;;;3.60;;
68523;SDS011;55524;51.380;13.372;2022-07-04T05:21:43;4.10;;;2.90;;
68523;SDS011;55524;51.380;13.372;2022-07-04T05:24:10;4.30;;;2.60;;
68523;SDS011;55524;51.380;13.372;2022-07-04T05:26:36;3.17;;;2.90;;
68523;SDS011;55524;51.380;13.372;2022-07-04T05:29:03;4.45;;;2.70;;
68523;SDS011;55524;51.380;13.372;2022-07-04T05:31:29;10.43;;;3.00;;
68523;SDS011;55524;51.380;13.372;2022-07-04T05:33:56;5.57;;;3.08;;
68523;SDS011;55524;51.380;13.372;2022-07-04T05:36:23;115.28;;;5.43;;
68523;SDS011;55524;51.380;13.372;2022-07-04T05:38:50;15.75;;;3.72;;
68523;SDS011;55524;51.380;13.372;2022-07-04T05:41:16;7.72;;;2.70;;
68523;SDS011;55524;51.380;13.372;2022-07-04T05:43:42;9.15;;;3.20;;
68523;SDS011;55524;51.380;13.372;2022-07-04T05:46:09;29.55;;;4.90;;
68523;SDS011;55524;51.380;13.372;2022-07-04T05:48:35;7.40;;;2.70;;
68523;SDS011;55524;51.380;13.372;2022-07-04T05:51:02;8.00;;;2.83;;
68523;SDS011;55524;51.380;13.372;2022-07-04T05:53:28;12.70;;;3.40;;
68523;SDS011;55524;51.380;13.372;2022-07-04T05:55:55;6.25;;;2.80;;
68523;SDS011;55524;51.380;13.372;2022-07-04T05:58:21;4.40;;;2.70;;
68523;SDS011;55524;51.380;13.372;2022-07-04T06:00:47;3.00;;;2.65;;
68523;SDS011;55524;51.380;13.372;2022-07-04T06:03:13;2.60;;;2.40;;
68523;SDS011;55524;51.380;13.372;2022-07-04T06:05:40;14.75;;;2.78;;
68523;SDS011;55524;51.380;13.372;2022-07-04T06:08:24;6.53;;;2.60;;
68523;SDS011;55524;51.380;13.372;2022-07-04T06:10:50;4.15;;;2.50;;
68523;SDS011;55524;51.380;13.372;2022-07-04T06:13:24;8.45;;;3.00;;
68523;SDS011;55524;51.380;13.372;2022-07-04T06:15:52;7.13;;;2.67;;
68523;SDS011;55524;51.380;13.372;2022-07-04T06:18:18;8.40;;;2.90;;
68523;SDS011;55524;51.380;13.372;2022-07-04T06:20:45;6.30;;;2.80;;
68523;SDS011;55524;51.380;13.372;2022-07-04T06:23:11;9.60;;;3.30;;
68523;SDS011;55524;51.380;13.372;2022-07-04T06:25:37;15.82;;;3.35;;
68523;SDS011;55524;51.380;13.372;2022-07-04T06:28:03;8.30;;;3.00;;
68523;SDS011;55524;51.380;13.372;2022-07-04T06:30:53;13.10;;;3.13;;
68523;SDS011;55524;51.380;13.372;2022-07-04T06:33:19;2.88;;;2.20;;
68523;SDS011;55524;51.380;13.372;2022-07-04T06:35:45;17.58;;;3.22;;
68523;SDS011;55524;51.380;13.372;2022-07-04T06:38:19;2.60;;;2.33;;
68523;SDS011;55524;51.380;13.372;2022-07-04T06:40:53;4.32;;;2.15;;
68523;SDS011;55524;51.380;13.372;2022-07-04T06:43:20;6.63;;;2.45;;
68523;SDS011;55524;51.380;13.372;2022-07-04T06:45:49;4.97;;;2.20;;
68523;SDS011;55524;51.380;13.372;2022-07-04T06:48:16;3.10;;;1.80;;
68523;SDS011;55524;51.380;13.372;2022-07-04T06:50:44;3.58;;;2.05;;
68523;SDS011;55524;51.380;13.372;2022-07-04T06:53:10;7.70;;;1.90;;
68523;SDS011;55524;51.380;13.372;2022-07-04T06:55:37;3.20;;;1.85;;
68523;SDS011;55524;51.380;13.372;2022-07-04T06:58:04;4.90;;;1.80;;
68523;SDS011;55524;51.380;13.372;2022-07-04T07:00:32;5.15;;;1.55;;
68523;SDS011;55524;51.380;13.372;2022-07-04T07:03:00;4.60;;;2.15;;
68523;SDS011;55524;51.380;13.372;2022-07-04T07:05:27;4.43;;;1.73;;
68523;SDS011;55524;51.380;13.372;2022-07-04T07:07:55;5.75;;;1.75;;
68523;SDS011;55524;51.380;13.372;2022-07-04T07:10:21;1.73;;;1.33;;
68523;SDS011;55524;51.380;13.372;2022-07-04T07:12:47;4.43;;;1.67;;
68523;SDS011;55524;51.380;13.372;2022-07-04T07:15:13;2.45;;;1.45;;
68523;SDS011;55524;51.380;13.372;2022-07-04T07:17:41;2.17;;;1.85;;
68523;SDS011;55524;51.380;13.372;2022-07-04T07:20:08;2.63;;;1.70;;
68523;SDS011;55524;51.380;13.372;2022-07-04T07:22:34;3.53;;;1.35;;
68523;SDS011;55524;51.380;13.372;2022-07-04T07:25:01;3.55;;;1.50;;
68523;SDS011;55524;51.380;13.372;2022-07-04T07:27:27;3.47;;;1.42;;
68523;SDS011;55524;51.380;13.372;2022-07-04T07:29:53;3.10;;;1.20;;
68523;SDS011;55524;51.380;13.372;2022-07-04T07:32:20;2.25;;;1.27;;
68523;SDS011;55524;51.380;13.372;2022-07-04T07:34:46;1.85;;;1.40;;
68523;SDS011;55524;51.380;13.372;2022-07-04T07:37:12;1.52;;;1.35;;
68523;SDS011;55524;51.380;13.372;2022-07-04T07:39:38;3.17;;;1.35;;
68523;SDS011;55524;51.380;13.372;2022-07-04T07:42:04;1.52;;;1.40;;
68523;SDS011;55524;51.380;13.372;2022-07-04T07:44:31;3.40;;;1.40;;
68523;SDS011;55524;51.380;13.372;2022-07-04T07:46:57;1.55;;;1.23;;
68523;SDS011;55524;51.380;13.372;2022-07-04T07:49:23;2.80;;;1.30;;
68523;SDS011;55524;51.380;13.372;2022-07-04T07:51:50;9.93;;;1.20;;
68523;SDS011;55524;51.380;13.372;2022-07-04T07:54:16;2.50;;;1.27;;
68523;SDS011;55524;51.380;13.372;2022-07-04T07:56:42;1.98;;;1.20;;
68523;SDS011;55524;51.380;13.372;2022-07-04T07:59:09;1.35;;;1.23;;
68523;SDS011;55524;51.380;13.372;2022-07-04T08:01:35;1.80;;;1.15;;
68523;SDS011;55524;51.380;13.372;2022-07-04T08:04:01;6.30;;;1.17;;
68523;SDS011;55524;51.380;13.372;2022-07-04T08:06:47;2.72;;;1.08;;
68523;SDS011;55524;51.380;13.372;2022-07-04T08:09:13;1.45;;;1.08;;
68523;SDS011;55524;51.380;13.372;2022-07-04T08:11:40;3.88;;;1.10;;
68523;SDS011;55524;51.380;13.372;2022-07-04T08:14:07;3.33;;;1.20;;
68523;SDS011;55524;51.380;13.372;2022-07-04T08:16:34;1.08;;;1.00;;
68523;SDS011;55524;51.380;13.372;2022-07-04T08:19:01;1.67;;;0.80;;
68523;SDS011;55524;51.380;13.372;2022-07-04T08:21:28;2.35;;;0.95;;
68523;SDS011;55524;51.380;13.372;2022-07-04T08:23:54;3.75;;;1.00;;
68523;SDS011;55524;51.380;13.372;2022-07-04T08:26:20;2.90;;;0.80;;
68523;SDS011;55524;51.380;13.372;2022-07-04T08:28:47;2.33;;;1.00;;
68523;SDS011;55524;51.380;13.372;2022-07-04T08:31:13;2.13;;;0.95;;
68523;SDS011;55524;51.380;13.372;2022-07-04T08:33:39;2.13;;;0.80;;
68523;SDS011;55524;51.380;13.372;2022-07-04T08:36:05;5.00;;;0.77;;
68523;SDS011;55524;51.380;13.372;2022-07-04T08:38:31;3.22;;;0.90;;
68523;SDS011;55524;51.380;13.372;2022-07-04T08:40:58;0.85;;;0.80;;
68523;SDS011;55524;51.380;13.372;2022-07-04T08:43:27;3.80;;;1.10;;
68523;SDS011;55524;51.380;13.372;2022-07-04T08:45:58;1.75;;;1.00;;
68523;SDS011;55524;51.380;13.372;2022-07-04T08:48:27;4.38;;;1.00;;
68523;SDS011;55524;51.380;13.372;2022-07-04T08:50:57;2.65;;;1.15;;
68523;SDS011;55524;51.380;13.372;2022-07-04T08:53:38;3.38;;;0.98;;
68523;SDS011;55524;51.380;13.372;2022-07-04T08:56:33;3.85;;;1.00;;
68523;SDS011;55524;51.380;13.372;2022-07-04T08:59:18;5.72;;;0.98;;
68523;SDS011;55524;51.380;13.372;2022-07-04T09:01:44;3.78;;;1.05;;
68523;SDS011;55524;51.380;13.372;2022-07-04T09:04:11;2.25;;;0.88;;
68523;SDS011;55524;51.380;13.372;2022-07-04T09:06:42;4.13;;;1.00;;
68523;SDS011;55524;51.380;13.372;2022-07-04T09:09:40;3.50;;;1.08;;
68523;SDS011;55524;51.380;13.372;2022-07-04T09:12:10;2.50;;;0.93;;
68523;SDS011;55524;51.380;13.372;2022-07-04T09:14:38;4.53;;;0.90;;
68523;SDS011;55524;51.380;13.372;2022-07-04T09:17:05;2.78;;;1.02;;
68523;SDS011;55524;51.380;13.372;2022-07-04T09:19:32;2.35;;;1.10;;
68523;SDS011;55524;51.380;13.372;2022-07-04T09:22:07;1.05;;;1.00;;
68523;SDS011;55524;51.380;13.372;2022-07-04T09:24:51;4.85;;;1.10;;
68523;SDS011;55524;51.380;13.372;2022-07-04T09:27:30;5.82;;;1.33;;
68523;SDS011;55524;51.380;13.372;2022-07-04T09:30:01;3.92;;;1.30;;
68523;SDS011;55524;51.380;13.372;2022-07-04T09:35:19;6.85;;;1.10;;
68523;SDS011;55524;51.380;13.372;2022-07-04T09:37:48;2.85;;;1.00;;
68523;SDS011;55524;51.380;13.372;2022-07-04T09:40:32;2.40;;;1.20;;
68523;SDS011;55524;51.380;13.372;2022-07-04T09:43:22;6.47;;;1.13;;
68523;SDS011;55524;51.380;13.372;2022-07-04T09:48:23;1.83;;;1.00;;
68523;SDS011;55524;51.380;13.372;2022-07-04T09:50:50;4.63;;;1.05;;
68523;SDS011;55524;51.380;13.372;2022-07-04T09:53:17;4.28;;;1.10;;
68523;SDS011;55524;51.380;13.372;2022-07-04T09:55:43;2.38;;;1.10;;
68523;SDS011;55524;51.380;13.372;2022-07-04T09:58:15;2.45;;;1.05;;
68523;SDS011;55524;51.380;13.372;2022-07-04T10:00:42;1.83;;;1.10;;
68523;SDS011;55524;51.380;13.372;2022-07-04T10:03:23;3.72;;;1.25;;
68523;SDS011;55524;51.380;13.372;2022-07-04T10:08:31;6.05;;;1.25;;
68523;SDS011;55524;51.380;13.372;2022-07-04T10:10:58;9.70;;;1.85;;
68523;SDS011;55524;51.380;13.372;2022-07-04T10:13:26;3.10;;;1.10;;
68523;SDS011;55524;51.380;13.372;2022-07-04T10:15:53;2.50;;;1.20;;
68523;SDS011;55524;51.380;13.372;2022-07-04T10:18:20;12.13;;;1.95;;
68523;SDS011;55524;51.380;13.372;2022-07-04T10:20:47;2.78;;;1.30;;
68523;SDS011;55524;51.380;13.372;2022-07-04T10:23:16;16.30;;;2.90;;
68523;SDS011;55524;51.380;13.372;2022-07-04T10:25:50;2.70;;;1.10;;
68523;SDS011;55524;51.380;13.372;2022-07-04T10:28:19;3.25;;;1.00;;
68523;SDS011;55524;51.380;13.372;2022-07-04T10:30:46;1.63;;;0.88;;
68523;SDS011;55524;51.380;13.372;2022-07-04T10:33:16;1.52;;;0.85;;
68523;SDS011;55524;51.380;13.372;2022-07-04T10:38:30;4.50;;;1.00;;
68523;SDS011;55524;51.380;13.372;2022-07-04T10:41:12;2.08;;;1.00;;
68523;SDS011;55524;51.380;13.372;2022-07-04T10:51:16;3.60;;;1.00;;
68523;SDS011;55524;51.380;13.372;2022-07-04T10:54:07;1.73;;;0.80;;
68523;SDS011;55524;51.380;13.372;2022-07-04T10:56:36;0.85;;;0.85;;
68523;SDS011;55524;51.380;13.372;2022-07-04T10:59:08;4.00;;;0.90;;
68523;SDS011;55524;51.380;13.372;2022-07-04T11:01:36;2.70;;;0.90;;
68523;SDS011;55524;51.380;13.372;2022-07-04T11:04:02;1.00;;;1.00;;
68523;SDS011;55524;51.380;13.372;2022-07-04T11:11:56;4.78;;;0.90;;
68523;SDS011;55524;51.380;13.372;2022-07-04T11:17:10;4.50;;;1.02;;
68523;SDS011;55524;51.380;13.372;2022-07-04T11:19:44;2.53;;;0.80;;
68523;SDS011;55524;51.380;13.372;2022-07-04T11:22:11;2.42;;;1.00;;
68523;SDS011;55524;51.380;13.372;2022-07-04T11:24:49;1.17;;;1.00;;
68523;SDS011;55524;51.380;13.372;2022-07-04T11:27:15;3.20;;;0.80;;
68523;SDS011;55524;51.380;13.372;2022-07-04T11:29:52;4.50;;;1.17;;
68523;SDS011;55524;51.380;13.372;2022-07-04T11:32:20;4.82;;;0.88;;
68523;SDS011;55524;51.380;13.372;2022-07-04T11:34:54;3.85;;;0.93;;
68523;SDS011;55524;51.380;13.372;2022-07-04T11:37:21;5.65;;;1.20;;
68523;SDS011;55524;51.380;13.372;2022-07-04T11:39:51;1.23;;;0.73;;
68523;SDS011;55524;51.380;13.372;2022-07-04T11:42:39;5.53;;;0.80;;
68523;SDS011;55524;51.380;13.372;2022-07-04T11:45:24;0.77;;;0.77;;
68523;SDS011;55524;51.380;13.372;2022-07-04T11:47:50;3.60;;;0.73;;
68523;SDS011;55524;51.380;13.372;2022-07-04T11:50:17;2.17;;;0.70;;
68523;SDS011;55524;51.380;13.372;2022-07-04T11:52:46;1.38;;;0.80;;
68523;SDS011;55524;51.380;13.372;2022-07-04T11:55:16;1.25;;;0.90;;
68523;SDS011;55524;51.380;13.372;2022-07-04T11:57:44;5.07;;;0.90;;
68523;SDS011;55524;51.380;13.372;2022-07-04T12:02:43;2.30;;;0.70;;
68523;SDS011;55524;51.380;13.372;2022-07-04T12:05:12;1.52;;;0.60;;
68523;SDS011;55524;51.380;13.372;2022-07-04T12:07:41;4.13;;;0.90;;
68523;SDS011;55524;51.380;13.372;2022-07-04T12:10:30;4.00;;;0.70;;
68523;SDS011;55524;51.380;13.372;2022-07-04T12:16:03;3.25;;;1.10;;
68523;SDS011;55524;51.380;13.372;2022-07-04T12:20:51;2.20;;;0.73;;
68523;SDS011;55524;51.380;13.372;2022-07-04T12:23:18;3.63;;;0.98;;
68523;SDS011;55524;51.380;13.372;2022-07-04T12:25:46;2.08;;;0.90;;
68523;SDS011;55524;51.380;13.372;2022-07-04T12:28:15;5.40;;;0.95;;
68523;SDS011;55524;51.380;13.372;2022-07-04T12:30:58;3.88;;;0.80;;
68523;SDS011;55524;51.380;13.372;2022-07-04T12:33:28;4.00;;;0.77;;
68523;SDS011;55524;51.380;13.372;2022-07-04T12:35:56;3.37;;;0.80;;
68523;SDS011;55524;51.380;13.372;2022-07-04T12:43:20;1.05;;;0.90;;
68523;SDS011;55524;51.380;13.372;2022-07-04T12:45:48;2.05;;;0.80;;
68523;SDS011;55524;51.380;13.372;2022-07-04T12:48:23;2.70;;;1.00;;
68523;SDS011;55524;51.380;13.372;2022-07-04T12:50:51;1.13;;;0.88;;
68523;SDS011;55524;51.380;13.372;2022-07-04T12:53:18;6.57;;;1.02;;
68523;SDS011;55524;51.380;13.372;2022-07-04T12:55:46;1.83;;;1.00;;
68523;SDS011;55524;51.380;13.372;2022-07-04T12:58:13;3.33;;;1.17;;
68523;SDS011;55524;51.380;13.372;2022-07-04T13:00:40;4.10;;;1.10;;
68523;SDS011;55524;51.380;13.372;2022-07-04T13:03:07;2.88;;;1.10;;
68523;SDS011;55524;51.380;13.372;2022-07-04T13:05:34;2.72;;;1.20;;
68523;SDS011;55524;51.380;13.372;2022-07-04T13:08:01;4.07;;;1.33;;
68523;SDS011;55524;51.380;13.372;2022-07-04T13:10:28;4.57;;;1.60;;
68523;SDS011;55524;51.380;13.372;2022-07-04T13:12:57;1.92;;;1.30;;
68523;SDS011;55524;51.380;13.372;2022-07-04T13:15:23;4.30;;;1.27;;
68523;SDS011;55524;51.380;13.372;2022-07-04T13:17:50;5.03;;;1.40;;
68523;SDS011;55524;51.380;13.372;2022-07-04T13:20:16;11.70;;;1.70;;
68523;SDS011;55524;51.380;13.372;2022-07-04T13:22:43;2.33;;;1.15;;
68523;SDS011;55524;51.380;13.372;2022-07-04T13:25:09;4.95;;;1.58;;
68523;SDS011;55524;51.380;13.372;2022-07-04T13:27:35;10.88;;;2.55;;
68523;SDS011;55524;51.380;13.372;2022-07-04T13:30:01;7.57;;;1.70;;
68523;SDS011;55524;51.380;13.372;2022-07-04T13:32:28;4.18;;;1.60;;
68523;SDS011;55524;51.380;13.372;2022-07-04T13:34:54;4.72;;;1.13;;
68523;SDS011;55524;51.380;13.372;2022-07-04T13:37:21;1.60;;;1.50;;
68523;SDS011;55524;51.380;13.372;2022-07-04T13:39:47;4.63;;;1.50;;
68523;SDS011;55524;51.380;13.372;2022-07-04T13:42:13;9.73;;;1.38;;
68523;SDS011;55524;51.380;13.372;2022-07-04T13:45:00;4.97;;;1.20;;
68523;SDS011;55524;51.380;13.372;2022-07-04T13:47:26;2.13;;;1.40;;
68523;SDS011;55524;51.380;13.372;2022-07-04T13:49:52;2.67;;;1.20;;
68523;SDS011;55524;51.380;13.372;2022-07-04T13:52:19;4.55;;;1.30;;
68523;SDS011;55524;51.380;13.372;2022-07-04T13:54:45;3.22;;;1.00;;
68523;SDS011;55524;51.380;13.372;2022-07-04T13:57:11;1.65;;;0.98;;
68523;SDS011;55524;51.380;13.372;2022-07-04T13:59:38;1.35;;;1.05;;
68523;SDS011;55524;51.380;13.372;2022-07-04T14:02:04;1.80;;;1.10;;
68523;SDS011;55524;51.380;13.372;2022-07-04T14:04:31;5.28;;;1.33;;
68523;SDS011;55524;51.380;13.372;2022-07-04T14:06:59;1.05;;;0.85;;
68523;SDS011;55524;51.380;13.372;2022-07-04T14:09:26;2.45;;;1.00;;
68523;SDS011;55524;51.380;13.372;2022-07-04T14:11:52;1.40;;;0.90;;
68523;SDS011;55524;51.380;13.372;2022-07-04T14:14:19;1.40;;;0.98;;
68523;SDS011;55524;51.380;13.372;2022-07-04T14:16:45;2.83;;;1.23;;
68523;SDS011;55524;51.380;13.372;2022-07-04T14:19:12;5.88;;;1.30;;
68523;SDS011;55524;51.380;13.372;2022-07-04T14:21:39;2.85;;;1.10;;
68523;SDS011;55524;51.380;13.372;2022-07-04T14:24:05;2.13;;;0.98;;
68523;SDS011;55524;51.380;13.372;2022-07-04T14:26:31;2.92;;;1.10;;
68523;SDS011;55524;51.380;13.372;2022-07-04T14:28:58;3.72;;;1.00;;
68523;SDS011;55524;51.380;13.372;2022-07-04T14:31:24;0.90;;;0.80;;
68523;SDS011;55524;51.380;13.372;2022-07-04T14:33:50;2.83;;;0.88;;
68523;SDS011;55524;51.380;13.372;2022-07-04T14:36:16;7.32;;;1.00;;
68523;SDS011;55524;51.380;13.372;2022-07-04T14:38:43;4.10;;;1.20;;
68523;SDS011;55524;51.380;13.372;2022-07-04T14:41:09;2.20;;;1.02;;
68523;SDS011;55524;51.380;13.372;2022-07-04T14:43:39;4.25;;;0.90;;
68523;SDS011;55524;51.380;13.372;2022-07-04T14:46:07;4.38;;;1.30;;
68523;SDS011;55524;51.380;13.372;2022-07-04T14:48:34;10.98;;;1.23;;
68523;SDS011;55524;51.380;13.372;2022-07-04T14:51:01;2.95;;;0.93;;
68523;SDS011;55524;51.380;13.372;2022-07-04T14:53:28;4.90;;;0.93;;
68523;SDS011;55524;51.380;13.372;2022-07-04T14:55:54;4.28;;;0.80;;
68523;SDS011;55524;51.380;13.372;2022-07-04T14:58:20;6.47;;;0.90;;
68523;SDS011;55524;51.380;13.372;2022-07-04T15:00:47;29.38;;;3.75;;
68523;SDS011;55524;51.380;13.372;2022-07-04T15:03:13;6.35;;;1.02;;
68523;SDS011;55524;51.380;13.372;2022-07-04T15:05:40;2.38;;;0.77;;
68523;SDS011;55524;51.380;13.372;2022-07-04T15:08:06;3.45;;;0.90;;
68523;SDS011;55524;51.380;13.372;2022-07-04T15:10:34;1.90;;;0.80;;
68523;SDS011;55524;51.380;13.372;2022-07-04T15:13:00;2.05;;;0.80;;
68523;SDS011;55524;51.380;13.372;2022-07-04T15:15:26;1.10;;;0.90;;
68523;SDS011;55524;51.380;13.372;2022-07-04T15:17:52;4.22;;;0.80;;